Time;durP1;ratioP1;P1;durP2;ratioP2;P2;SDS_P1;SDS_P2;PMS_P1;PMS_P2;Temp;Humidity;BMP_temperature;BMP_pressure;BME280_temperature;BME280_humidity;BME280_pressure;Samples;Min_cycle;Max_cycle;Signal;HPM_P1;HPM_P2
2023/07/27 00:01:05;;;;;;;9.63;9.10;;;16.50;25.50;;;;;;4982232;28;20177;-57
2023/07/27 00:03:31;;;;;;;9.93;9.43;;;16.60;25.50;;;;;;5002194;28;20218;-57
2023/07/27 00:05:56;;;;;;;8.90;8.50;;;16.40;26.00;;;;;;5002607;28;20181;-58
2023/07/27 00:08:22;;;;;;;10.23;9.73;;;16.40;26.30;;;;;;5004872;28;20428;-58
2023/07/27 00:10:48;;;;;;;10.37;9.77;;;16.40;25.80;;;;;;4985852;28;20635;-58
2023/07/27 00:13:13;;;;;;;9.13;8.73;;;16.40;25.70;;;;;;5002867;28;20181;-58
2023/07/27 00:15:39;;;;;;;9.37;8.83;;;16.40;25.80;;;;;;4985190;28;20273;-56
2023/07/27 00:18:04;;;;;;;10.03;9.53;;;16.40;26.10;;;;;;4982883;28;20201;-57
2023/07/27 00:20:30;;;;;;;8.80;8.50;;;16.40;26.10;;;;;;4984269;28;20237;-58
2023/07/27 00:22:56;;;;;;;10.20;9.70;;;16.40;26.30;;;;;;5002616;28;20585;-58
2023/07/27 00:25:21;;;;;;;9.03;8.63;;;16.40;25.60;;;;;;4988870;28;20181;-58
2023/07/27 00:27:47;;;;;;;8.50;8.10;;;16.40;26.10;;;;;;4999879;28;20188;-58
2023/07/27 00:30:13;;;;;;;9.07;8.67;;;16.40;25.70;;;;;;4980994;28;20243;-58
2023/07/27 00:32:38;;;;;;;9.50;9.00;;;16.40;26.10;;;;;;5001248;28;20538;-58
2023/07/27 00:35:05;;;;;;;8.63;8.23;;;16.40;25.80;;;;;;4989215;28;20425;-58
2023/07/27 00:37:31;;;;;;;8.73;8.43;;;16.30;26.00;;;;;;5003563;28;20629;-58
2023/07/27 00:39:56;;;;;;;9.50;9.10;;;16.40;26.20;;;;;;5007256;28;20453;-58
2023/07/27 00:42:22;;;;;;;9.67;9.27;;;16.30;26.10;;;;;;4982567;28;20184;-58
2023/07/27 00:44:47;;;;;;;9.30;8.90;;;16.50;26.30;;;;;;4984948;28;20221;-57
2023/07/27 00:47:13;;;;;;;10.40;9.60;;;16.60;25.60;;;;;;4998958;28;20189;-57
2023/07/27 00:49:39;;;;;;;8.87;8.57;;;16.60;25.60;;;;;;4987577;28;20177;-58
2023/07/27 00:52:07;;;;;;;9.87;9.37;;;16.60;25.50;;;;;;4982707;28;20553;-58
2023/07/27 00:54:34;;;;;;;9.03;8.63;;;16.50;25.80;;;;;;4985925;28;20189;-58
2023/07/27 00:57:00;;;;;;;9.53;9.03;;;16.50;25.60;;;;;;4994159;28;20948;-58
2023/07/27 00:59:27;;;;;;;9.60;9.20;;;16.60;25.70;;;;;;5009840;28;20421;-58
2023/07/27 01:01:53;;;;;;;9.87;9.47;;;16.60;25.60;;;;;;5003042;28;20429;-58
2023/07/27 01:04:19;;;;;;;9.40;9.00;;;16.60;25.70;;;;;;4993315;28;20416;-58
2023/07/27 01:06:45;;;;;;;9.73;9.33;;;16.70;25.80;;;;;;5004050;28;20519;-58
2023/07/27 01:09:11;;;;;;;9.00;8.70;;;16.70;25.20;;;;;;4984981;28;20503;-58
2023/07/27 01:11:48;;;;;;;9.87;9.37;;;16.60;25.60;;;;;;5011010;28;20243;-58
2023/07/27 01:14:17;;;;;;;9.50;9.00;;;16.60;25.30;;;;;;4989813;28;20541;-58
2023/07/27 01:16:42;;;;;;;10.07;9.43;;;16.60;25.80;;;;;;5005779;28;20421;-59
2023/07/27 01:19:36;;;;;;;9.70;9.30;;;16.50;25.90;;;;;;5006530;28;20460;-58
2023/07/27 01:22:39;;;;;;;9.43;8.83;;;16.40;26.20;;;;;;5000163;28;20263;-58
2023/07/27 01:25:07;;;;;;;9.67;9.10;;;16.40;26.10;;;;;;5006308;28;20824;-58
2023/07/27 01:28:00;;;;;;;9.83;9.33;;;16.40;26.20;;;;;;5005155;28;20420;-58
2023/07/27 01:31:04;;;;;;;9.63;9.03;;;16.30;26.00;;;;;;4986016;28;20428;-58
2023/07/27 01:33:33;;;;;;;9.20;8.80;;;16.10;26.60;;;;;;5008244;28;20459;-58
2023/07/27 01:36:06;;;;;;;10.00;9.50;;;16.10;26.80;;;;;;4986355;28;20424;-58
2023/07/27 01:38:34;;;;;;;9.00;8.60;;;16.00;27.00;;;;;;5001481;28;20463;-63
2023/07/27 01:41:01;;;;;;;9.63;9.23;;;16.10;27.00;;;;;;5005072;28;20928;-64
2023/07/27 01:43:28;;;;;;;8.80;8.40;;;16.10;26.50;;;;;;5007426;28;20435;-64
2023/07/27 01:45:56;;;;;;;9.40;9.07;;;16.20;26.30;;;;;;5001940;28;20417;-64
2023/07/27 01:48:26;;;;;;;9.67;9.20;;;16.20;26.40;;;;;;4992135;28;20420;-64
2023/07/27 01:50:52;;;;;;;9.60;8.93;;;16.20;26.40;;;;;;4997301;28;20511;-64
2023/07/27 01:53:21;;;;;;;9.87;9.37;;;16.20;26.40;;;;;;5004849;28;20425;-64
2023/07/27 01:55:47;;;;;;;8.60;8.30;;;16.20;26.40;;;;;;4998241;28;20429;-63
2023/07/27 01:58:18;;;;;;;9.20;8.57;;;16.20;26.20;;;;;;4998965;28;21011;-65
2023/07/27 02:00:44;;;;;;;9.10;8.70;;;16.20;26.10;;;;;;4988733;28;20428;-63
2023/07/27 02:03:11;;;;;;;9.90;9.50;;;16.30;26.10;;;;;;4999994;28;20421;-64
2023/07/27 02:05:36;;;;;;;10.67;10.07;;;16.30;25.60;;;;;;4993368;28;20239;-64
2023/07/27 02:08:02;;;;;;;10.10;9.70;;;16.30;25.60;;;;;;4992446;28;20520;-64
2023/07/27 02:10:29;;;;;;;9.40;9.00;;;16.20;25.90;;;;;;4984519;28;20181;-64
2023/07/27 02:13:14;;;;;;;9.90;9.40;;;16.30;26.30;;;;;;4998251;28;20185;-65
2023/07/27 02:15:45;;;;;;;10.23;9.40;;;16.40;25.80;;;;;;4986915;28;20897;-64
2023/07/27 02:18:18;;;;;;;9.43;8.87;;;16.30;25.50;;;;;;4990301;28;20549;-63
2023/07/27 02:20:46;;;;;;;9.53;9.13;;;16.40;25.30;;;;;;4988531;28;20420;-64
2023/07/27 02:23:13;;;;;;;9.57;9.27;;;16.40;25.40;;;;;;4990491;28;20420;-63
2023/07/27 02:25:38;;;;;;;10.40;9.90;;;16.30;25.50;;;;;;4991772;28;20412;-64
2023/07/27 02:28:04;;;;;;;8.87;8.57;;;16.30;25.50;;;;;;5005376;28;20427;-63
2023/07/27 02:30:30;;;;;;;10.20;9.80;;;16.20;25.60;;;;;;4988018;28;20779;-63
2023/07/27 02:32:55;;;;;;;9.50;9.00;;;16.10;26.10;;;;;;4993818;28;20182;-64
2023/07/27 02:35:21;;;;;;;10.40;9.90;;;16.00;26.30;;;;;;4985215;28;20264;-59
2023/07/27 02:37:47;;;;;;;9.47;9.07;;;16.10;26.40;;;;;;5004147;28;20533;-59
2023/07/27 02:40:12;;;;;;;9.47;9.07;;;15.90;26.80;;;;;;5004199;28;20619;-58
2023/07/27 02:42:38;;;;;;;10.73;10.33;;;15.90;27.20;;;;;;5002486;28;20213;-64
2023/07/27 02:45:04;;;;;;;9.73;9.07;;;15.90;27.20;;;;;;4984732;28;20181;-64
2023/07/27 02:47:30;;;;;;;9.23;8.73;;;15.90;27.20;;;;;;4988016;28;20597;-65
2023/07/27 02:49:55;;;;;;;10.00;9.50;;;16.00;27.30;;;;;;4995647;28;20420;-65
2023/07/27 02:52:21;;;;;;;9.70;9.30;;;16.10;27.30;;;;;;5010532;28;20188;-65
2023/07/27 02:54:47;;;;;;;9.77;9.27;;;16.00;27.30;;;;;;5002935;28;20189;-64
2023/07/27 02:57:12;;;;;;;9.20;8.90;;;16.10;27.30;;;;;;4984416;28;20197;-65
2023/07/27 02:59:38;;;;;;;9.50;9.10;;;16.10;27.30;;;;;;5007099;28;20194;-65
2023/07/27 03:02:04;;;;;;;9.87;9.47;;;16.20;27.40;;;;;;4999341;28;20861;-64
2023/07/27 03:04:29;;;;;;;10.10;9.70;;;16.10;27.30;;;;;;5003596;28;20658;-64
2023/07/27 03:06:55;;;;;;;9.97;9.40;;;16.10;27.30;;;;;;4996804;28;20433;-63
2023/07/27 03:09:21;;;;;;;9.90;9.60;;;16.10;27.30;;;;;;5003519;28;20189;-64
2023/07/27 03:11:47;;;;;;;9.73;9.33;;;16.20;27.40;;;;;;5010361;28;20185;-64
2023/07/27 03:14:13;;;;;;;10.10;9.70;;;16.20;27.40;;;;;;5003692;28;20192;-64
2023/07/27 03:16:38;;;;;;;9.43;8.93;;;16.20;27.10;;;;;;5007061;28;20424;-64
2023/07/27 03:19:04;;;;;;;9.40;9.10;;;16.30;27.50;;;;;;5011407;28;20205;-64
2023/07/27 03:21:29;;;;;;;10.80;10.30;;;16.30;27.00;;;;;;5002623;28;20248;-64
2023/07/27 03:23:55;;;;;;;9.70;9.30;;;16.30;26.90;;;;;;4987390;28;20173;-64
2023/07/27 03:26:21;;;;;;;10.40;10.00;;;16.40;26.80;;;;;;4995634;28;20638;-64
2023/07/27 03:28:46;;;;;;;10.13;9.73;;;16.30;27.10;;;;;;5002478;28;20177;-64
2023/07/27 03:31:28;;;;;;;10.47;9.90;;;16.30;27.50;;;;;;5001236;28;20187;-64
2023/07/27 03:33:54;;;;;;;10.43;9.93;;;16.30;27.40;;;;;;4989532;28;20185;-64
2023/07/27 03:36:20;;;;;;;10.10;9.50;;;16.30;27.50;;;;;;5000748;28;20761;-64
2023/07/27 03:38:47;;;;;;;10.30;9.90;;;16.20;27.40;;;;;;4992582;28;20208;-64
2023/07/27 03:41:13;;;;;;;10.60;10.00;;;16.20;27.40;;;;;;4989163;28;20429;-64
2023/07/27 03:43:39;;;;;;;10.07;9.67;;;16.20;27.40;;;;;;4984867;28;20431;-65
2023/07/27 03:46:04;;;;;;;9.30;8.90;;;16.20;27.40;;;;;;4979739;28;20420;-64
2023/07/27 03:48:30;;;;;;;9.93;9.47;;;16.30;27.50;;;;;;5001104;28;20268;-64
2023/07/27 03:51:00;;;;;;;9.03;8.73;;;16.30;27.50;;;;;;5001041;28;20212;-64
2023/07/27 03:53:26;;;;;;;9.23;8.80;;;16.30;27.50;;;;;;4990749;28;20182;-64
2023/07/27 03:55:52;;;;;;;9.97;9.57;;;16.30;27.50;;;;;;5009887;28;20441;-64
2023/07/27 03:58:18;;;;;;;9.27;8.97;;;16.30;27.50;;;;;;5005160;28;20509;-64
2023/07/27 04:00:43;;;;;;;10.27;9.87;;;16.30;27.50;;;;;;4986405;28;20248;-64
2023/07/27 04:03:09;;;;;;;10.03;9.53;;;16.20;27.40;;;;;;5004956;28;20550;-64
2023/07/27 04:05:34;;;;;;;9.47;9.13;;;16.20;27.40;;;;;;5002875;28;20593;-64
2023/07/27 04:08:00;;;;;;;9.97;9.37;;;16.30;27.50;;;;;;5003044;28;20654;-64
2023/07/27 04:10:26;;;;;;;9.27;8.97;;;16.30;27.50;;;;;;5004638;28;20208;-58
2023/07/27 04:12:52;;;;;;;10.40;9.90;;;16.30;27.50;;;;;;5005464;28;20193;-59
2023/07/27 04:15:18;;;;;;;9.27;8.77;;;16.40;27.60;;;;;;5004521;28;20182;-58
2023/07/27 04:17:43;;;;;;;10.10;9.70;;;16.40;27.50;;;;;;5003369;28;20220;-58
2023/07/27 04:20:10;;;;;;;11.03;10.63;;;16.40;27.50;;;;;;5006752;28;20417;-59
2023/07/27 04:22:35;;;;;;;11.00;10.50;;;16.50;27.60;;;;;;4997651;28;20185;-58
2023/07/27 04:25:01;;;;;;;10.10;9.60;;;16.50;27.30;;;;;;5006730;28;20500;-59
2023/07/27 04:27:27;;;;;;;10.60;10.07;;;16.40;27.50;;;;;;4992468;28;20209;-58
2023/07/27 04:29:52;;;;;;;9.20;8.80;;;16.40;27.50;;;;;;4994910;28;20505;-58
2023/07/27 04:32:18;;;;;;;9.90;9.40;;;16.50;27.60;;;;;;5002380;28;20193;-58
2023/07/27 04:34:44;;;;;;;9.50;9.10;;;16.50;27.40;;;;;;5008843;28;20277;-64
2023/07/27 04:37:10;;;;;;;9.90;9.40;;;16.50;27.00;;;;;;5002477;28;20236;-64
2023/07/27 04:39:35;;;;;;;9.33;8.93;;;16.40;27.50;;;;;;4999475;28;20173;-59
2023/07/27 04:42:01;;;;;;;10.10;9.57;;;16.40;27.50;;;;;;5006807;28;20182;-59
2023/07/27 04:44:26;;;;;;;9.63;9.07;;;16.40;27.50;;;;;;4982754;28;20178;-59
2023/07/27 04:46:53;;;;;;;10.43;9.83;;;16.40;27.50;;;;;;4984731;28;20269;-59
2023/07/27 04:49:19;;;;;;;9.00;8.60;;;16.40;27.50;;;;;;4988890;28;20181;-59
2023/07/27 04:51:44;;;;;;;9.70;9.20;;;16.30;27.50;;;;;;5004787;28;20791;-59
2023/07/27 04:54:10;;;;;;;9.03;8.73;;;16.30;27.50;;;;;;4982850;28;20504;-59
2023/07/27 04:56:36;;;;;;;9.73;9.23;;;16.30;27.50;;;;;;4983900;28;20604;-59
2023/07/27 04:59:01;;;;;;;9.77;9.37;;;16.30;27.50;;;;;;4982540;28;20778;-58
2023/07/27 05:01:27;;;;;;;9.70;9.10;;;16.30;27.50;;;;;;4984606;28;20231;-58
2023/07/27 05:03:53;;;;;;;10.10;9.50;;;16.30;27.50;;;;;;4996524;28;20267;-58
2023/07/27 05:06:19;;;;;;;8.43;8.13;;;16.30;27.50;;;;;;5002280;28;20181;-59
2023/07/27 05:08:44;;;;;;;8.90;8.60;;;16.30;27.50;;;;;;4996754;28;20182;-58
2023/07/27 05:11:10;;;;;;;8.70;8.20;;;16.30;27.50;;;;;;5002336;28;20551;-59
2023/07/27 05:13:36;;;;;;;8.93;8.60;;;16.30;27.50;;;;;;4997918;28;20281;-58
2023/07/27 05:16:02;;;;;;;10.50;9.63;;;16.30;27.50;;;;;;4998837;28;20209;-59
2023/07/27 05:18:28;;;;;;;9.33;8.83;;;16.30;27.50;;;;;;4981571;28;20577;-59
2023/07/27 05:20:55;;;;;;;9.87;9.47;;;16.40;27.50;;;;;;4990337;28;20425;-59
2023/07/27 05:23:20;;;;;;;10.20;9.63;;;16.40;27.50;;;;;;4989482;28;20415;-53
2023/07/27 05:25:47;;;;;;;8.87;8.57;;;16.40;27.50;;;;;;4986828;28;20524;-51
2023/07/27 05:28:13;;;;;;;9.93;9.43;;;16.40;27.50;;;;;;5000300;28;20269;-55
2023/07/27 05:30:39;;;;;;;9.30;8.90;;;16.30;27.50;;;;;;4992379;28;20511;-55
2023/07/27 05:33:05;;;;;;;9.90;9.40;;;16.40;27.50;;;;;;5005683;28;20425;-55
2023/07/27 05:35:30;;;;;;;9.03;8.53;;;16.40;27.50;;;;;;4989737;28;20188;-56
2023/07/27 05:37:56;;;;;;;8.70;8.40;;;16.50;27.60;;;;;;5006483;28;20911;-55
2023/07/27 05:40:22;;;;;;;9.73;9.23;;;16.50;27.60;;;;;;4985627;28;20289;-54
2023/07/27 05:42:47;;;;;;;8.60;8.20;;;16.60;27.20;;;;;;5012143;28;20228;-52
2023/07/27 05:45:13;;;;;;;9.10;8.60;;;16.70;27.00;;;;;;4989144;28;20602;-54
2023/07/27 05:47:38;;;;;;;9.80;9.40;;;16.70;27.10;;;;;;5010826;28;20701;-55
2023/07/27 05:50:06;;;;;;;9.37;8.87;;;16.70;27.10;;;;;;5000845;28;20269;-54
2023/07/27 05:52:32;;;;;;;9.50;9.10;;;16.70;27.00;;;;;;4985561;28;20193;-54
2023/07/27 05:54:57;;;;;;;10.10;9.50;;;16.70;27.00;;;;;;4997264;28;20416;-55
2023/07/27 05:57:24;;;;;;;9.17;8.67;;;16.80;26.90;;;;;;4989562;28;20449;-54
2023/07/27 05:59:49;;;;;;;9.13;8.57;;;16.80;27.10;;;;;;4993061;28;20181;-55
2023/07/27 06:02:15;;;;;;;10.00;9.50;;;16.80;26.90;;;;;;4985192;28;20436;-55
2023/07/27 06:04:41;;;;;;;9.37;8.80;;;16.90;26.80;;;;;;4986093;28;20235;-55
2023/07/27 06:07:06;;;;;;;9.07;8.67;;;16.90;26.50;;;;;;4985220;28;20503;-55
2023/07/27 06:09:32;;;;;;;9.50;9.10;;;17.00;26.70;;;;;;4992753;28;20181;-54
2023/07/27 06:11:58;;;;;;;9.33;8.93;;;17.10;26.50;;;;;;4981101;28;20600;-56
2023/07/27 06:14:24;;;;;;;8.93;8.43;;;17.10;26.60;;;;;;5004563;28;20224;-56
2023/07/27 06:16:49;;;;;;;9.20;8.70;;;17.10;26.60;;;;;;5009784;28;20424;-54
2023/07/27 06:19:15;;;;;;;9.87;9.30;;;17.20;26.50;;;;;;5004235;28;20205;-55
2023/07/27 06:21:41;;;;;;;9.93;9.40;;;17.20;26.20;;;;;;4988115;28;20209;-54
2023/07/27 06:24:08;;;;;;;9.40;9.10;;;17.30;26.40;;;;;;5004130;28;20188;-54
2023/07/27 06:26:33;;;;;;;8.90;8.60;;;17.30;26.00;;;;;;5004545;28;20233;-56
2023/07/27 06:28:59;;;;;;;9.40;8.80;;;17.30;26.60;;;;;;5001804;28;20425;-55
2023/07/27 06:31:25;;;;;;;8.77;8.47;;;17.30;26.80;;;;;;4991327;28;20193;-55
2023/07/27 06:33:50;;;;;;;8.80;8.50;;;17.30;26.80;;;;;;5014757;28;20412;-55
2023/07/27 06:36:17;;;;;;;9.47;8.97;;;17.30;26.80;;;;;;4994632;28;20190;-56
2023/07/27 06:38:43;;;;;;;8.40;8.10;;;17.40;26.50;;;;;;5009761;28;20224;-54
2023/07/27 06:41:09;;;;;;;9.17;8.77;;;17.50;27.10;;;;;;5004287;28;20424;-56
2023/07/27 06:43:34;;;;;;;10.00;9.50;;;17.50;27.30;;;;;;4985884;28;20417;-56
2023/07/27 06:46:00;;;;;;;8.93;8.50;;;17.50;27.20;;;;;;5008304;28;20463;-52
2023/07/27 06:48:26;;;;;;;8.90;8.50;;;17.60;27.10;;;;;;4986666;28;20200;-55
2023/07/27 06:50:52;;;;;;;9.07;8.57;;;17.60;26.90;;;;;;4985838;28;20627;-54
2023/07/27 06:53:18;;;;;;;9.63;8.93;;;17.60;26.80;;;;;;4988486;28;20686;-55
2023/07/27 06:55:44;;;;;;;9.70;9.07;;;17.70;27.20;;;;;;5008221;28;20452;-59
2023/07/27 06:58:09;;;;;;;9.60;9.20;;;17.70;26.70;;;;;;5004186;28;20208;-53
2023/07/27 07:00:35;;;;;;;9.70;9.10;;;17.70;26.70;;;;;;4987432;28;20189;-52
2023/07/27 07:03:01;;;;;;;9.10;8.63;;;17.80;26.90;;;;;;5011280;28;20181;-53
2023/07/27 07:05:27;;;;;;;9.50;9.00;;;17.80;26.40;;;;;;5012069;28;20185;-54
2023/07/27 07:07:53;;;;;;;8.77;8.37;;;17.90;26.40;;;;;;5008958;28;20227;-57
2023/07/27 07:10:18;;;;;;;8.90;8.57;;;17.90;26.90;;;;;;5008303;28;20193;-55
2023/07/27 07:12:44;;;;;;;9.17;8.70;;;17.90;26.60;;;;;;4985332;28;20409;-56
2023/07/27 07:15:10;;;;;;;9.37;8.87;;;17.90;26.60;;;;;;4984493;28;20178;-57
2023/07/27 07:17:36;;;;;;;9.83;8.87;;;17.90;26.70;;;;;;4992104;28;20202;-55
2023/07/27 07:20:05;;;;;;;9.20;8.80;;;17.90;26.70;;;;;;4988126;28;20968;-55
2023/07/27 07:22:32;;;;;;;9.33;8.93;;;18.00;27.10;;;;;;4991908;28;20423;-56
2023/07/27 07:24:57;;;;;;;9.50;9.10;;;18.00;26.90;;;;;;4995416;28;20917;-56
2023/07/27 07:27:23;;;;;;;9.90;9.20;;;18.00;26.40;;;;;;4987446;28;20416;-55
2023/07/27 07:29:49;;;;;;;9.70;9.30;;;18.00;26.20;;;;;;4995844;28;20186;-56
2023/07/27 07:32:15;;;;;;;8.97;8.63;;;17.90;25.90;;;;;;5001504;28;20638;-56
2023/07/27 07:34:40;;;;;;;9.57;9.17;;;17.90;26.40;;;;;;5001376;28;20185;-55
2023/07/27 07:37:06;;;;;;;9.87;9.37;;;17.90;25.70;;;;;;5003628;28;20417;-56
2023/07/27 07:39:31;;;;;;;9.70;9.20;;;17.90;26.30;;;;;;5003079;28;20206;-55
2023/07/27 07:41:58;;;;;;;8.57;8.27;;;17.90;25.90;;;;;;4981458;28;20201;-56
2023/07/27 07:44:24;;;;;;;10.20;9.80;;;17.90;25.80;;;;;;4990646;28;20173;-55
2023/07/27 07:46:50;;;;;;;9.37;9.07;;;17.90;25.80;;;;;;5004642;28;20486;-54
2023/07/27 07:49:16;;;;;;;9.40;9.00;;;17.90;26.00;;;;;;5001336;28;20432;-56
2023/07/27 07:51:41;;;;;;;9.60;9.20;;;18.00;26.00;;;;;;4992839;28;20181;-57
2023/07/27 07:54:09;;;;;;;9.80;9.40;;;18.00;26.00;;;;;;5002698;28;20184;-56
2023/07/27 07:56:35;;;;;;;9.93;9.43;;;18.10;25.70;;;;;;5008774;28;20225;-59
2023/07/27 07:59:01;;;;;;;9.30;8.90;;;18.10;25.80;;;;;;5006657;28;20457;-59
2023/07/27 08:01:27;;;;;;;9.70;9.07;;;18.10;25.90;;;;;;4989743;28;20482;-59
2023/07/27 08:03:52;;;;;;;9.90;9.20;;;18.10;26.00;;;;;;4990844;28;20413;-59
2023/07/27 08:06:18;;;;;;;9.80;9.30;;;18.10;25.80;;;;;;4989253;28;20176;-59
2023/07/27 08:08:45;;;;;;;9.90;9.30;;;18.20;25.80;;;;;;4994135;28;20177;-59
2023/07/27 08:11:10;;;;;;;9.70;9.20;;;18.20;25.40;;;;;;4986101;28;20646;-60
2023/07/27 08:13:36;;;;;;;10.27;9.57;;;18.10;25.30;;;;;;5010453;28;20459;-59
2023/07/27 08:16:05;;;;;;;9.53;8.93;;;18.10;25.60;;;;;;5012046;28;20454;-59
2023/07/27 08:18:32;;;;;;;9.30;8.80;;;18.10;25.40;;;;;;4985850;28;20612;-59
2023/07/27 08:21:01;;;;;;;8.60;8.20;;;18.20;25.20;;;;;;4994243;28;20416;-59
2023/07/27 08:23:27;;;;;;;10.10;9.53;;;18.20;24.90;;;;;;5010404;28;20487;-59
2023/07/27 08:25:53;;;;;;;10.93;10.40;;;18.20;24.90;;;;;;4992624;28;20505;-59
2023/07/27 08:28:20;;;;;;;10.80;10.40;;;18.20;24.70;;;;;;5010364;28;20421;-59
2023/07/27 08:30:46;;;;;;;10.43;10.03;;;18.20;24.60;;;;;;5013519;28;20261;-59
2023/07/27 08:33:12;;;;;;;10.07;9.57;;;18.20;24.70;;;;;;4997007;28;20515;-61
2023/07/27 08:35:39;;;;;;;10.47;9.73;;;18.20;24.60;;;;;;4997013;28;20420;-61
2023/07/27 08:38:05;;;;;;;81.50;75.07;;;18.20;24.80;;;;;;4986202;28;20487;-59
2023/07/27 08:40:30;;;;;;;10.50;9.90;;;18.20;25.10;;;;;;4988896;28;20455;-59
2023/07/27 08:42:56;;;;;;;9.83;9.40;;;18.20;24.60;;;;;;5000540;28;20178;-68
2023/07/27 08:45:22;;;;;;;10.00;9.60;;;18.20;24.80;;;;;;4984471;28;20544;-60
2023/07/27 08:47:48;;;;;;;10.37;9.30;;;18.20;24.60;;;;;;4994395;28;20625;-61
2023/07/27 08:50:15;;;;;;;9.47;9.00;;;18.20;24.70;;;;;;5005294;28;20416;-61
2023/07/27 08:52:41;;;;;;;9.77;9.47;;;18.30;24.70;;;;;;5011977;28;20512;-62
2023/07/27 08:55:07;;;;;;;10.50;9.80;;;18.30;24.50;;;;;;4996049;28;20886;-62
2023/07/27 08:57:33;;;;;;;10.37;9.87;;;18.30;24.40;;;;;;5001730;28;20471;-62
2023/07/27 08:59:58;;;;;;;9.03;8.73;;;18.30;24.50;;;;;;4990401;28;20425;-60
2023/07/27 09:02:24;;;;;;;10.57;10.07;;;18.30;24.50;;;;;;4989356;28;20177;-61
2023/07/27 09:04:50;;;;;;;10.03;9.43;;;18.30;24.50;;;;;;4985619;28;20184;-61
2023/07/27 09:07:15;;;;;;;10.77;10.27;;;18.30;24.80;;;;;;5007462;28;20205;-61
2023/07/27 09:09:41;;;;;;;8.97;8.67;;;18.40;24.60;;;;;;5009112;28;20186;-61
2023/07/27 09:12:07;;;;;;;9.30;8.80;;;18.40;24.70;;;;;;5010753;28;20188;-61
2023/07/27 09:14:37;;;;;;;8.87;8.57;;;18.50;24.40;;;;;;5009100;28;20632;-58
2023/07/27 09:17:03;;;;;;;9.27;8.87;;;18.60;24.40;;;;;;5004042;28;20428;-58
2023/07/27 09:19:40;;;;;;;10.00;9.60;;;18.60;24.50;;;;;;4994944;28;20510;-59
2023/07/27 09:22:07;;;;;;;9.47;9.07;;;18.70;24.00;;;;;;5007562;28;20428;-59
2023/07/27 09:24:33;;;;;;;10.47;9.87;;;18.70;24.30;;;;;;5011579;28;20429;-56
2023/07/27 09:27:01;;;;;;;10.03;9.23;;;18.70;24.00;;;;;;4999088;28;20419;-55
2023/07/27 09:29:27;;;;;;;10.17;9.63;;;18.60;24.70;;;;;;4994012;28;20526;-57
2023/07/27 09:31:57;;;;;;;9.60;9.10;;;18.70;26.20;;;;;;5012256;28;20420;-56
2023/07/27 09:34:23;;;;;;;9.67;9.20;;;18.60;27.00;;;;;;4995755;28;20462;-57
2023/07/27 09:36:48;;;;;;;10.10;9.60;;;18.60;27.00;;;;;;5001353;28;20444;-59
2023/07/27 09:39:15;;;;;;;9.40;9.00;;;18.60;27.30;;;;;;4993113;28;20633;-60
2023/07/27 09:41:45;;;;;;;10.90;10.20;;;18.50;27.00;;;;;;5002958;28;20178;-60
2023/07/27 09:44:15;;;;;;;10.23;9.73;;;18.50;27.10;;;;;;5013522;28;20423;-60
2023/07/27 09:46:42;;;;;;;11.03;10.37;;;18.50;29.30;;;;;;4984936;28;20443;-60
2023/07/27 09:49:08;;;;;;;10.37;9.77;;;18.40;26.90;;;;;;5013844;28;20516;-60
2023/07/27 09:51:35;;;;;;;10.13;9.43;;;18.40;28.50;;;;;;4996916;28;20424;-59
2023/07/27 09:54:01;;;;;;;9.63;9.23;;;18.50;29.00;;;;;;5001698;28;20475;-59
2023/07/27 09:56:28;;;;;;;10.60;9.97;;;18.50;28.30;;;;;;5005680;28;20948;-60
2023/07/27 09:58:54;;;;;;;8.80;8.50;;;18.50;29.00;;;;;;4996441;28;20464;-59
2023/07/27 10:01:19;;;;;;;9.03;8.53;;;18.50;28.10;;;;;;5003641;28;20474;-59
2023/07/27 10:03:46;;;;;;;10.50;9.90;;;18.50;28.50;;;;;;4996815;28;20797;-60
2023/07/27 10:06:15;;;;;;;10.00;9.50;;;18.60;28.80;;;;;;5001006;28;20288;-58
2023/07/27 10:08:42;;;;;;;10.03;9.60;;;18.50;26.90;;;;;;4996181;28;20412;-60
2023/07/27 10:11:08;;;;;;;10.00;9.50;;;18.50;27.20;;;;;;5013181;28;20416;-60
2023/07/27 10:13:44;;;;;;;10.73;10.00;;;18.60;27.70;;;;;;5012820;28;20943;-60
2023/07/27 10:16:11;;;;;;;9.53;9.03;;;18.50;26.70;;;;;;5012511;28;20271;-60
2023/07/27 10:18:49;;;;;;;9.43;9.03;;;18.60;26.70;;;;;;5011939;28;20522;-60
2023/07/27 10:21:20;;;;;;;10.23;9.63;;;18.60;26.70;;;;;;5009480;28;20424;-60
2023/07/27 10:24:01;;;;;;;10.07;9.57;;;18.60;27.30;;;;;;4999241;28;20642;-59
2023/07/27 10:26:42;;;;;;;11.07;10.47;;;18.60;26.30;;;;;;5011851;28;20421;-60
2023/07/27 10:29:34;;;;;;;10.10;9.67;;;18.60;26.70;;;;;;5004606;28;20412;-60
2023/07/27 10:32:07;;;;;;;10.33;9.87;;;18.60;26.50;;;;;;5001746;28;20444;-60
2023/07/27 10:34:34;;;;;;;10.20;9.70;;;18.70;26.30;;;;;;4995060;28;20432;-60
2023/07/27 10:37:04;;;;;;;9.83;9.43;;;18.70;25.80;;;;;;4996148;28;20764;-59
2023/07/27 10:39:34;;;;;;;10.33;9.80;;;18.80;25.40;;;;;;5011932;28;20468;-59
2023/07/27 10:42:13;;;;;;;9.00;8.50;;;18.80;25.50;;;;;;5012478;28;20967;-59
2023/07/27 10:44:42;;;;;;;9.40;8.93;;;18.90;25.20;;;;;;5012284;28;20451;-60
2023/07/27 10:47:37;;;;;;;10.73;10.23;;;18.90;24.90;;;;;;5012790;28;20543;-60
2023/07/27 10:50:03;;;;;;;9.30;8.90;;;19.00;24.70;;;;;;4995779;28;20529;-60
2023/07/27 10:52:31;;;;;;;10.10;9.60;;;19.10;25.00;;;;;;5012480;28;20771;-60
2023/07/27 10:54:58;;;;;;;9.10;8.70;;;19.10;24.40;;;;;;5002391;28;20429;-60
2023/07/27 10:57:25;;;;;;;9.90;9.50;;;19.20;24.40;;;;;;5011014;28;20463;-59
2023/07/27 10:59:51;;;;;;;10.37;9.80;;;19.20;24.30;;;;;;5009042;28;20421;-60
2023/07/27 11:02:23;;;;;;;10.27;9.87;;;19.20;24.40;;;;;;4994266;28;20428;-61
2023/07/27 11:04:55;;;;;;;11.50;10.90;;;19.20;24.60;;;;;;5002120;28;20424;-61
2023/07/27 11:07:33;;;;;;;10.00;9.50;;;19.40;24.30;;;;;;5012033;28;20451;-60
2023/07/27 11:10:08;;;;;;;10.27;9.77;;;19.40;24.10;;;;;;5011138;28;20814;-60
2023/07/27 11:12:54;;;;;;;10.50;10.03;;;19.40;24.10;;;;;;4995739;28;20420;-60
2023/07/27 11:15:22;;;;;;;10.47;9.97;;;19.60;24.20;;;;;;4988693;28;20409;-60
2023/07/27 11:17:49;;;;;;;11.63;11.07;;;19.60;24.00;;;;;;5005278;28;20464;-60
2023/07/27 11:20:18;;;;;;;8.77;8.47;;;19.70;24.10;;;;;;4999465;28;20833;-60
2023/07/27 11:22:44;;;;;;;9.20;8.80;;;19.70;24.70;;;;;;5011829;28;20420;-60
2023/07/27 11:25:10;;;;;;;9.77;8.90;;;19.80;24.10;;;;;;5008814;28;20440;-60
2023/07/27 11:27:37;;;;;;;9.73;9.23;;;19.90;23.90;;;;;;5008480;28;20843;-60
2023/07/27 11:30:06;;;;;;;10.03;9.70;;;19.90;23.90;;;;;;4995157;28;20450;-60
2023/07/27 11:32:32;;;;;;;9.80;9.40;;;19.90;24.00;;;;;;5011494;28;20431;-59
2023/07/27 11:34:57;;;;;;;9.50;9.10;;;20.00;24.00;;;;;;5011564;28;20420;-59
2023/07/27 11:37:30;;;;;;;9.27;8.87;;;20.00;23.90;;;;;;5004717;28;20175;-59
2023/07/27 11:39:56;;;;;;;9.67;9.23;;;20.10;23.80;;;;;;4993314;28;20626;-60
2023/07/27 11:42:26;;;;;;;9.27;8.90;;;20.10;24.10;;;;;;5010643;28;20579;-60
2023/07/27 11:44:51;;;;;;;9.47;8.93;;;20.20;24.20;;;;;;4992569;28;20464;-59
2023/07/27 11:47:17;;;;;;;9.57;9.17;;;20.30;24.50;;;;;;4992888;28;20432;-60
2023/07/27 11:49:44;;;;;;;9.87;9.10;;;20.30;24.20;;;;;;5002133;28;20188;-55
2023/07/27 11:52:09;;;;;;;9.33;8.93;;;20.30;23.70;;;;;;5008749;28;20260;-59
2023/07/27 11:54:38;;;;;;;9.43;9.07;;;20.40;23.80;;;;;;4993925;28;20535;-58
2023/07/27 11:57:04;;;;;;;10.50;10.00;;;20.40;23.90;;;;;;5000825;28;20288;-59
2023/07/27 11:59:31;;;;;;;9.50;8.90;;;20.40;24.70;;;;;;4984384;28;20568;-55
2023/07/27 12:01:57;;;;;;;9.33;8.93;;;20.40;24.50;;;;;;4995193;28;20174;-54
2023/07/27 12:04:25;;;;;;;10.20;9.70;;;20.40;24.20;;;;;;4989876;28;20978;-55
2023/07/27 12:06:51;;;;;;;10.30;9.80;;;20.40;25.90;;;;;;4995273;28;20520;-56
2023/07/27 12:09:17;;;;;;;9.17;8.77;;;20.40;26.80;;;;;;5010626;28;20519;-55
2023/07/27 12:11:44;;;;;;;9.07;8.50;;;20.40;27.20;;;;;;5011819;28;20189;-55
2023/07/27 12:14:10;;;;;;;9.90;9.50;;;20.40;27.60;;;;;;5007220;28;20955;-56
2023/07/27 12:16:54;;;;;;;9.70;9.20;;;20.40;28.30;;;;;;4988869;28;20444;-55
2023/07/27 12:19:19;;;;;;;11.03;10.53;;;20.40;28.80;;;;;;4989572;28;20803;-54
2023/07/27 12:21:47;;;;;;;9.30;8.90;;;20.40;30.20;;;;;;4999168;28;20418;-55
2023/07/27 12:24:15;;;;;;;10.63;10.03;;;20.30;30.10;;;;;;5002774;28;20169;-56
2023/07/27 12:26:40;;;;;;;10.53;10.03;;;20.30;30.50;;;;;;5002629;28;20425;-55
2023/07/27 12:29:06;;;;;;;9.20;8.70;;;20.20;31.10;;;;;;5003296;28;20455;-52
2023/07/27 12:31:33;;;;;;;9.33;8.90;;;20.20;31.70;;;;;;4998326;28;20232;-55
2023/07/27 12:33:58;;;;;;;9.83;9.33;;;20.20;32.50;;;;;;5006471;28;20186;-54
2023/07/27 12:36:24;;;;;;;10.10;9.40;;;20.20;33.30;;;;;;4983034;28;20420;-54
2023/07/27 12:38:50;;;;;;;8.70;8.40;;;20.20;34.90;;;;;;4990561;28;20592;-55
2023/07/27 12:41:15;;;;;;;8.93;8.43;;;20.10;34.70;;;;;;4988368;28;20637;-55
2023/07/27 12:43:41;;;;;;;9.57;9.10;;;20.10;36.00;;;;;;4983432;28;20179;-55